Time;durP1;ratioP1;P1;durP2;ratioP2;P2;SDS_P1;SDS_P2;PMS_P1;PMS_P2;Temp;Humidity;BMP_temperature;BMP_pressure;BME280_temperature;BME280_humidity;BME280_pressure;Samples;Min_cycle;Max_cycle;Signal;HPM_P1;HPM_P2
2022/08/06 00:00:41;;;;;;;3.37;2.30;;;20.30;1.00;;;;;;5090520;28;20245;-56
2022/08/06 00:03:07;;;;;;;3.17;2.13;;;20.40;1.00;;;;;;5089697;28;20183;-58
2022/08/06 00:05:33;;;;;;;2.43;2.20;;;20.60;1.00;;;;;;5090399;28;20505;-57
2022/08/06 00:07:59;;;;;;;2.70;2.30;;;20.40;1.00;;;;;;5090202;28;20817;-57
2022/08/06 00:10:25;;;;;;;3.47;3.17;;;20.30;1.00;;;;;;5088669;28;20282;-57
2022/08/06 00:12:51;;;;;;;5.23;2.53;;;20.30;1.00;;;;;;5088120;28;20689;-57
2022/08/06 00:15:17;;;;;;;2.80;2.60;;;20.30;1.00;;;;;;5089653;28;20444;-58
2022/08/06 00:17:44;;;;;;;7.20;3.07;;;20.10;1.00;;;;;;5090029;28;20497;-58
2022/08/06 00:20:15;;;;;;;6.10;3.03;;;20.10;1.00;;;;;;5090956;28;20524;-57
2022/08/06 00:22:41;;;;;;;2.63;2.43;;;20.20;1.00;;;;;;5089480;28;20483;-58
2022/08/06 00:25:07;;;;;;;2.97;2.77;;;20.30;1.00;;;;;;5090555;28;20456;-57
2022/08/06 00:27:34;;;;;;;3.13;2.70;;;20.30;1.00;;;;;;5072184;28;20667;-56
2022/08/06 00:29:59;;;;;;;2.57;2.37;;;20.10;1.00;;;;;;5089978;28;20425;-57
2022/08/06 00:32:25;;;;;;;3.50;3.20;;;20.20;1.00;;;;;;5089589;28;20944;-58
2022/08/06 00:34:51;;;;;;;4.50;3.33;;;20.20;1.00;;;;;;5089560;28;20179;-58
2022/08/06 00:37:17;;;;;;;4.30;3.27;;;20.00;1.00;;;;;;5090189;28;20245;-56
2022/08/06 00:39:43;;;;;;;3.03;2.83;;;20.00;1.00;;;;;;5088588;28;20228;-57
2022/08/06 00:42:09;;;;;;;6.53;3.73;;;19.90;1.00;;;;;;5089327;28;20456;-57
2022/08/06 00:44:35;;;;;;;3.20;2.90;;;20.00;1.00;;;;;;5090296;28;20440;-56
2022/08/06 00:47:00;;;;;;;3.87;3.53;;;19.80;1.00;;;;;;5088663;28;20209;-57
2022/08/06 00:49:27;;;;;;;4.10;3.70;;;19.70;1.00;;;;;;5090341;28;20833;-57
2022/08/06 00:51:52;;;;;;;3.80;3.40;;;19.70;1.00;;;;;;5088881;28;20575;-57
2022/08/06 00:54:22;;;;;;;6.10;5.13;;;20.00;1.00;;;;;;5087891;28;20436;-58
2022/08/06 00:56:48;;;;;;;4.20;3.80;;;20.00;1.00;;;;;;5089284;28;20206;-57
2022/08/06 00:59:13;;;;;;;5.30;3.17;;;20.10;1.00;;;;;;5089829;28;20778;-57
2022/08/06 01:01:39;;;;;;;3.87;3.47;;;20.20;1.00;;;;;;5090089;28;20630;-57
2022/08/06 01:04:05;;;;;;;4.60;3.67;;;20.00;1.00;;;;;;5090015;28;20278;-58
2022/08/06 01:06:30;;;;;;;3.97;3.57;;;20.10;1.00;;;;;;5089097;28;20222;-58
2022/08/06 01:08:56;;;;;;;4.30;3.90;;;19.90;1.00;;;;;;5088607;28;20544;-57
2022/08/06 01:11:22;;;;;;;3.87;3.57;;;20.00;1.00;;;;;;5089647;28;20183;-55
2022/08/06 01:13:47;;;;;;;4.70;3.63;;;20.00;1.00;;;;;;5089144;28;20498;-57
2022/08/06 01:16:24;;;;;;;3.50;3.20;;;19.80;1.00;;;;;;5088502;28;20194;-57
2022/08/06 01:19:17;;;;;;;4.00;3.60;;;19.80;1.00;;;;;;5089474;28;20189;-58
2022/08/06 01:22:08;;;;;;;4.83;4.53;;;19.90;1.00;;;;;;5089976;28;20485;-57
2022/08/06 01:25:09;;;;;;;5.20;3.47;;;19.90;1.00;;;;;;5089328;28;20527;-57
2022/08/06 01:27:53;;;;;;;3.57;3.27;;;19.90;1.00;;;;;;5088931;28;20977;-57
2022/08/06 01:30:22;;;;;;;4.73;3.80;;;19.90;1.00;;;;;;5088576;28;20946;-56
2022/08/06 01:32:53;;;;;;;4.43;4.03;;;19.90;1.00;;;;;;5089459;28;20489;-56
2022/08/06 01:35:30;;;;;;;4.77;3.70;;;20.10;1.00;;;;;;5089349;28;20436;-58
2022/08/06 01:38:11;;;;;;;4.70;4.30;;;20.00;1.00;;;;;;5086348;28;20448;-57
2022/08/06 01:40:39;;;;;;;3.80;3.50;;;20.10;1.00;;;;;;5089342;28;20471;-57
2022/08/06 01:43:09;;;;;;;4.30;3.63;;;20.10;1.00;;;;;;5089049;28;20567;-58
2022/08/06 01:45:38;;;;;;;4.43;3.83;;;20.10;1.00;;;;;;5089390;28;20972;-57
2022/08/06 01:48:08;;;;;;;4.20;3.83;;;20.10;1.00;;;;;;5089557;28;20946;-57
2022/08/06 01:50:38;;;;;;;4.60;3.53;;;20.00;1.00;;;;;;5090310;28;20478;-57
2022/08/06 01:53:06;;;;;;;4.90;4.40;;;20.00;1.00;;;;;;5071081;28;20494;-58
2022/08/06 01:55:38;;;;;;;3.90;3.60;;;20.00;1.00;;;;;;5091017;28;20786;-57
2022/08/06 01:58:06;;;;;;;4.53;4.13;;;19.90;1.00;;;;;;5093178;28;20893;-57
2022/08/06 02:00:35;;;;;;;5.53;3.80;;;19.90;1.00;;;;;;5091312;28;20424;-57
2022/08/06 02:03:20;;;;;;;4.80;4.10;;;19.90;1.00;;;;;;5089154;28;20460;-57
2022/08/06 02:05:47;;;;;;;6.10;4.43;;;20.00;1.00;;;;;;5091903;28;20801;-57
2022/08/06 02:08:17;;;;;;;7.97;4.70;;;20.00;1.00;;;;;;5087598;28;20829;-58
2022/08/06 02:10:43;;;;;;;4.67;4.27;;;19.90;1.00;;;;;;5092330;28;20487;-57
2022/08/06 02:13:10;;;;;;;4.60;4.00;;;19.90;1.00;;;;;;5089307;28;20801;-58
2022/08/06 02:15:38;;;;;;;4.37;3.97;;;19.80;1.00;;;;;;5088330;28;20935;-58
2022/08/06 02:18:09;;;;;;;6.63;4.00;;;19.80;1.00;;;;;;5091426;28;20453;-57
2022/08/06 02:20:47;;;;;;;7.07;4.20;;;19.80;1.00;;;;;;5090234;28;20449;-58
2022/08/06 02:23:22;;;;;;;3.83;3.50;;;19.80;1.00;;;;;;5090541;28;20464;-57
2022/08/06 02:25:52;;;;;;;5.47;4.70;;;19.60;1.00;;;;;;5090366;28;20444;-56
2022/08/06 02:28:19;;;;;;;5.00;4.10;;;19.80;1.00;;;;;;5091557;28;20512;-58
2022/08/06 02:30:49;;;;;;;7.47;3.87;;;19.80;1.00;;;;;;5090930;28;20445;-58
2022/08/06 02:33:15;;;;;;;4.10;3.70;;;19.70;1.00;;;;;;5090066;28;20440;-57
2022/08/06 02:36:31;;;;;;;4.90;4.40;;;19.70;1.00;;;;;;5090897;28;20440;-57
2022/08/06 02:39:03;;;;;;;3.63;3.33;;;19.50;1.00;;;;;;5068028;28;20460;-57
2022/08/06 02:41:40;;;;;;;4.17;3.87;;;19.50;1.00;;;;;;5090119;28;20444;-57
2022/08/06 02:44:14;;;;;;;4.80;3.80;;;19.50;1.00;;;;;;5091363;28;20482;-57
2022/08/06 02:46:48;;;;;;;4.33;3.57;;;19.40;1.00;;;;;;5089980;28;20504;-56
2022/08/06 02:49:21;;;;;;;5.63;3.50;;;19.50;1.00;;;;;;5090084;28;20531;-59
2022/08/06 02:52:03;;;;;;;4.10;3.30;;;19.30;1.00;;;;;;5090019;28;21122;-58
2022/08/06 02:54:38;;;;;;;5.97;3.33;;;19.30;1.00;;;;;;5090558;28;20439;-57
2022/08/06 02:57:06;;;;;;;3.00;2.47;;;19.40;1.00;;;;;;5088952;28;20432;-58
2022/08/06 02:59:39;;;;;;;3.27;2.90;;;19.30;1.00;;;;;;5088394;28;20440;-57
2022/08/06 03:02:08;;;;;;;4.30;2.93;;;19.20;1.00;;;;;;5089301;28;20439;-57
2022/08/06 03:04:36;;;;;;;3.77;3.00;;;19.10;1.00;;;;;;5088999;28;20437;-57
2022/08/06 03:07:06;;;;;;;2.93;2.73;;;18.90;1.00;;;;;;5090375;28;20460;-56
2022/08/06 03:09:34;;;;;;;3.00;2.80;;;19.00;1.00;;;;;;5088891;28;20443;-57
2022/08/06 03:12:00;;;;;;;3.60;2.70;;;19.00;1.00;;;;;;5090100;28;20493;-57
2022/08/06 03:14:26;;;;;;;2.70;2.50;;;19.10;1.00;;;;;;5089665;28;20453;-58
2022/08/06 03:16:54;;;;;;;2.90;2.27;;;19.10;1.00;;;;;;5090735;28;20494;-57
2022/08/06 03:19:20;;;;;;;3.67;2.50;;;19.00;1.00;;;;;;5090138;28;20475;-56
2022/08/06 03:21:47;;;;;;;2.43;2.23;;;19.00;1.00;;;;;;5088020;28;20501;-57
2022/08/06 03:24:13;;;;;;;4.00;2.20;;;18.90;1.00;;;;;;5088976;28;20505;-57
2022/08/06 03:26:41;;;;;;;2.40;2.20;;;18.80;1.00;;;;;;5091191;28;20468;-57
2022/08/06 03:29:08;;;;;;;2.90;2.60;;;18.80;1.00;;;;;;5090001;28;20448;-57
2022/08/06 03:31:34;;;;;;;4.50;3.50;;;18.90;1.00;;;;;;5088723;28;21514;-58
2022/08/06 03:34:01;;;;;;;2.30;2.20;;;18.90;1.00;;;;;;5088841;28;20844;-56
2022/08/06 03:36:27;;;;;;;3.53;2.40;;;18.70;1.00;;;;;;5090594;28;20810;-56
2022/08/06 03:38:59;;;;;;;2.13;1.93;;;18.50;1.00;;;;;;5089447;28;20444;-57
2022/08/06 03:41:25;;;;;;;1.77;1.67;;;18.40;1.00;;;;;;5085035;28;20452;-58
2022/08/06 03:43:51;;;;;;;2.00;1.90;;;18.50;1.00;;;;;;5089676;28;20448;-57
2022/08/06 03:46:26;;;;;;;2.13;1.70;;;18.50;1.00;;;;;;5090660;28;20433;-57
2022/08/06 03:48:53;;;;;;;2.40;2.20;;;18.40;1.00;;;;;;5089950;28;20258;-57
2022/08/06 03:51:22;;;;;;;2.10;1.90;;;18.40;1.00;;;;;;5089498;28;20437;-57
2022/08/06 03:53:50;;;;;;;4.90;2.27;;;18.40;1.00;;;;;;5088833;28;20747;-57
2022/08/06 03:56:22;;;;;;;3.10;1.37;;;18.50;1.00;;;;;;5083611;28;20476;-57
2022/08/06 03:58:54;;;;;;;1.70;1.50;;;18.40;1.00;;;;;;5088403;28;20514;-57
2022/08/06 04:01:25;;;;;;;1.90;1.27;;;18.20;1.00;;;;;;5089468;28;20790;-58
2022/08/06 04:03:53;;;;;;;3.17;1.43;;;18.10;1.00;;;;;;5089879;28;20456;-57
2022/08/06 04:06:21;;;;;;;1.90;1.53;;;18.10;1.00;;;;;;5087517;28;20452;-57
2022/08/06 04:08:49;;;;;;;3.27;1.57;;;18.00;1.00;;;;;;5086976;28;20444;-57
2022/08/06 04:11:16;;;;;;;1.93;1.43;;;18.00;1.00;;;;;;5088075;28;20448;-56
2022/08/06 04:13:43;;;;;;;2.33;1.47;;;18.10;1.00;;;;;;5088146;28;21012;-57
2022/08/06 04:16:11;;;;;;;2.03;1.47;;;18.10;1.00;;;;;;5089518;28;20940;-57
2022/08/06 04:18:38;;;;;;;3.90;1.40;;;18.10;1.00;;;;;;5088379;28;20567;-57
2022/08/06 04:21:11;;;;;;;1.33;1.23;;;18.10;1.00;;;;;;5088194;28;20478;-57
2022/08/06 04:23:38;;;;;;;2.40;1.40;;;18.00;1.00;;;;;;5088566;28;20448;-57
2022/08/06 04:26:08;;;;;;;2.33;1.43;;;17.90;1.00;;;;;;5090172;28;20539;-57
2022/08/06 04:28:36;;;;;;;3.50;1.13;;;17.90;1.00;;;;;;5088311;28;20552;-56
2022/08/06 04:31:05;;;;;;;2.17;1.07;;;17.90;1.00;;;;;;5089290;28;20437;-57
2022/08/06 04:33:33;;;;;;;2.97;1.37;;;17.80;1.00;;;;;;5085404;28;20441;-57
2022/08/06 04:36:09;;;;;;;2.80;1.10;;;17.90;1.00;;;;;;5089134;28;20910;-58
2022/08/06 04:38:35;;;;;;;1.63;1.10;;;17.70;1.00;;;;;;5085568;28;20448;-57
2022/08/06 04:41:02;;;;;;;1.70;1.03;;;17.70;1.00;;;;;;5089091;28;20539;-57
2022/08/06 04:43:28;;;;;;;1.30;1.00;;;17.70;1.00;;;;;;5088684;28;20945;-58
2022/08/06 04:45:54;;;;;;;2.00;1.00;;;17.70;1.00;;;;;;5089283;28;20448;-58
2022/08/06 04:48:21;;;;;;;1.20;1.10;;;17.70;1.00;;;;;;5087294;28;20994;-57
2022/08/06 04:50:46;;;;;;;2.93;0.90;;;17.80;1.00;;;;;;5089807;28;21110;-57
2022/08/06 04:53:16;;;;;;;1.97;1.10;;;17.80;1.00;;;;;;5088518;28;20449;-56
2022/08/06 04:55:45;;;;;;;3.60;1.27;;;17.80;1.00;;;;;;5086802;28;20278;-59
2022/08/06 04:58:13;;;;;;;1.20;1.10;;;17.80;1.00;;;;;;5088479;28;20476;-57
2022/08/06 05:00:42;;;;;;;0.90;0.80;;;17.90;1.00;;;;;;5071094;28;20551;-56
2022/08/06 05:03:08;;;;;;;3.57;1.83;;;18.00;1.00;;;;;;5088202;28;20955;-56
2022/08/06 05:05:40;;;;;;;1.23;1.13;;;18.10;1.00;;;;;;5089427;28;20996;-57
2022/08/06 05:08:07;;;;;;;1.77;1.30;;;18.10;1.00;;;;;;5087279;28;20594;-57
2022/08/06 05:10:40;;;;;;;1.27;1.00;;;18.20;1.00;;;;;;5089586;28;20447;-58
2022/08/06 05:13:09;;;;;;;2.07;1.07;;;18.40;1.00;;;;;;5088205;28;20494;-58
2022/08/06 05:15:40;;;;;;;1.20;0.80;;;18.60;1.00;;;;;;5088296;28;20452;-58
2022/08/06 05:18:16;;;;;;;2.13;0.93;;;18.60;1.00;;;;;;5088037;28;20456;-57
2022/08/06 05:20:50;;;;;;;1.63;0.93;;;18.60;1.00;;;;;;5089637;28;20929;-59
2022/08/06 05:23:21;;;;;;;0.80;0.80;;;18.60;1.00;;;;;;5092644;28;20424;-58
2022/08/06 05:25:49;;;;;;;1.37;0.70;;;18.80;1.00;;;;;;5094247;28;20948;-58
2022/08/06 05:28:14;;;;;;;2.20;0.90;;;19.00;1.00;;;;;;5096276;28;20456;-58
2022/08/06 05:30:49;;;;;;;2.07;1.00;;;19.20;1.00;;;;;;5096399;28;20439;-58
2022/08/06 05:33:32;;;;;;;1.00;0.90;;;19.20;1.00;;;;;;5096478;28;20185;-57
2022/08/06 05:36:06;;;;;;;2.80;0.80;;;19.20;1.00;;;;;;5096171;28;20503;-58
2022/08/06 05:38:34;;;;;;;1.70;0.67;;;19.10;1.00;;;;;;5084936;28;20938;-58
2022/08/06 05:41:00;;;;;;;2.73;1.10;;;19.20;1.00;;;;;;5096056;28;20783;-58
2022/08/06 05:43:26;;;;;;;1.03;0.77;;;19.40;1.00;;;;;;5095992;28;20433;-58
2022/08/06 05:45:56;;;;;;;0.83;0.70;;;19.60;1.00;;;;;;5096086;28;20186;-58
2022/08/06 05:48:23;;;;;;;1.07;0.80;;;19.90;1.00;;;;;;5095854;28;20468;-58
2022/08/06 05:50:57;;;;;;;1.53;0.70;;;19.50;1.00;;;;;;5095797;28;20834;-59
2022/08/06 05:53:33;;;;;;;2.53;0.87;;;19.60;1.00;;;;;;5095361;28;20438;-58
2022/08/06 05:56:06;;;;;;;1.37;0.70;;;19.60;1.00;;;;;;5096043;28;20916;-59
2022/08/06 05:58:45;;;;;;;2.10;0.93;;;19.50;1.00;;;;;;5095463;28;20807;-59
2022/08/06 06:01:13;;;;;;;1.13;1.00;;;19.40;1.00;;;;;;5095917;28;20424;-58
2022/08/06 06:03:41;;;;;;;1.00;0.70;;;19.60;1.00;;;;;;5077731;28;20496;-58
2022/08/06 06:06:07;;;;;;;1.10;0.80;;;19.60;1.00;;;;;;5095585;28;20530;-59
2022/08/06 06:08:34;;;;;;;1.83;0.80;;;19.60;1.00;;;;;;5095142;28;20472;-59
2022/08/06 06:11:05;;;;;;;0.90;0.77;;;19.40;1.00;;;;;;5095608;28;20933;-58
2022/08/06 06:13:31;;;;;;;1.67;0.90;;;19.40;1.00;;;;;;5095705;28;20440;-58
2022/08/06 06:16:21;;;;;;;2.70;0.93;;;19.70;1.00;;;;;;5095424;28;20861;-58
2022/08/06 06:19:11;;;;;;;1.30;0.80;;;19.60;1.00;;;;;;5095136;28;20482;-58
2022/08/06 06:22:16;;;;;;;2.37;1.17;;;19.40;1.00;;;;;;5095105;28;20638;-57
2022/08/06 06:25:06;;;;;;;1.10;0.80;;;19.40;1.00;;;;;;5048045;28;20797;-57
2022/08/06 06:27:43;;;;;;;1.93;1.00;;;19.40;1.00;;;;;;5094884;28;20846;-59
2022/08/06 06:30:16;;;;;;;1.13;0.73;;;19.30;1.00;;;;;;5095157;28;20771;-58
2022/08/06 06:32:46;;;;;;;1.30;0.93;;;19.30;1.00;;;;;;5094646;28;20448;-58
2022/08/06 06:35:24;;;;;;;3.60;1.00;;;19.30;1.00;;;;;;5094818;28;20425;-58
2022/08/06 06:38:23;;;;;;;3.53;1.63;;;19.30;1.00;;;;;;5044205;28;20504;-58
2022/08/06 06:40:53;;;;;;;2.23;1.00;;;19.50;1.00;;;;;;5034538;28;20432;-58
2022/08/06 06:44:08;;;;;;;0.90;0.80;;;19.50;1.00;;;;;;5034604;28;20435;-57
2022/08/06 06:46:43;;;;;;;2.37;0.90;;;19.70;1.00;;;;;;5024201;28;20439;-59
2022/08/06 06:49:12;;;;;;;4.37;1.53;;;19.60;1.00;;;;;;5043567;28;20452;-54
2022/08/06 06:51:46;;;;;;;1.57;0.77;;;19.70;1.00;;;;;;5050879;28;20461;-56
2022/08/06 06:54:32;;;;;;;1.67;1.10;;;19.70;1.00;;;;;;5049804;28;20446;-56
2022/08/06 06:57:01;;;;;;;1.80;1.20;;;19.70;1.00;;;;;;5050192;28;20455;-57
2022/08/06 06:59:36;;;;;;;1.53;0.90;;;19.80;1.00;;;;;;5047638;28;20796;-58
2022/08/06 07:02:04;;;;;;;2.30;1.23;;;19.80;1.00;;;;;;5046063;28;20446;-57
2022/08/06 07:04:31;;;;;;;2.60;1.00;;;19.60;1.00;;;;;;5035856;28;20776;-57
2022/08/06 07:06:59;;;;;;;2.60;1.37;;;19.50;1.00;;;;;;5047926;28;20501;-56
2022/08/06 07:09:28;;;;;;;1.47;0.73;;;19.60;1.00;;;;;;5039639;28;20718;-56
2022/08/06 07:11:56;;;;;;;0.90;0.70;;;19.70;1.00;;;;;;5036753;28;20500;-57
2022/08/06 07:14:23;;;;;;;2.20;1.13;;;19.70;1.00;;;;;;5050920;28;20866;-57
2022/08/06 07:16:55;;;;;;;1.83;0.80;;;20.00;1.00;;;;;;5042697;28;20450;-56
2022/08/06 07:19:22;;;;;;;4.20;1.10;;;20.00;1.00;;;;;;5047696;28;20453;-56
2022/08/06 07:21:48;;;;;;;1.90;0.70;;;20.00;1.00;;;;;;5050019;28;20457;-56
2022/08/06 07:24:15;;;;;;;3.33;0.93;;;19.80;1.00;;;;;;5049643;28;20484;-58
2022/08/06 07:26:46;;;;;;;2.80;1.03;;;20.10;1.00;;;;;;5048485;28;20473;-57
2022/08/06 07:29:12;;;;;;;3.03;1.07;;;20.50;1.00;;;;;;5049828;28;20462;-56
2022/08/06 07:31:40;;;;;;;1.40;0.80;;;20.80;1.00;;;;;;5048945;28;20499;-57
2022/08/06 07:34:06;;;;;;;0.90;0.80;;;20.80;1.00;;;;;;5046384;28;20538;-57
2022/08/06 07:36:36;;;;;;;2.10;1.10;;;20.80;1.00;;;;;;5057714;28;20512;-56
2022/08/06 07:39:08;;;;;;;1.40;0.90;;;20.80;1.00;;;;;;5089718;28;20494;-57
2022/08/06 07:41:34;;;;;;;1.70;0.90;;;20.80;1.00;;;;;;5090475;28;20785;-58
2022/08/06 07:44:02;;;;;;;1.87;0.90;;;20.90;1.00;;;;;;5089440;28;20490;-56
2022/08/06 07:46:39;;;;;;;1.20;0.90;;;20.80;1.00;;;;;;5088032;28;20510;-57
2022/08/06 07:49:06;;;;;;;1.00;0.90;;;20.60;1.00;;;;;;5085369;28;20536;-57
2022/08/06 07:51:39;;;;;;;2.70;0.90;;;20.60;1.00;;;;;;5088379;28;20853;-56
2022/08/06 07:54:09;;;;;;;2.00;1.17;;;20.70;1.00;;;;;;5090796;28;20404;-58
2022/08/06 07:56:37;;;;;;;1.33;0.87;;;20.90;1.00;;;;;;5089250;28;20443;-56
2022/08/06 07:59:04;;;;;;;1.10;1.00;;;21.00;1.00;;;;;;5090214;28;20470;-58
2022/08/06 08:01:32;;;;;;;1.63;0.90;;;21.30;1.00;;;;;;5088134;28;20468;-57
2022/08/06 08:06:43;;;;;;;2.80;1.00;;;21.50;1.00;;;;;;5088746;28;20451;-56
2022/08/06 08:09:17;;;;;;;2.70;0.90;;;21.40;1.00;;;;;;5090516;28;20510;-57
2022/08/06 08:11:45;;;;;;;2.30;1.23;;;21.40;1.00;;;;;;5087832;28;22150;-57
2022/08/06 08:14:14;;;;;;;1.97;1.00;;;21.40;1.00;;;;;;5088800;28;20528;-59
2022/08/06 08:16:40;;;;;;;2.33;1.07;;;21.50;1.00;;;;;;5039056;28;20445;-56
2022/08/06 08:19:30;;;;;;;1.20;0.83;;;21.60;1.00;;;;;;5090230;28;20425;-57
2022/08/06 08:21:58;;;;;;;1.30;0.90;;;21.70;1.00;;;;;;5088512;28;20444;-57
2022/08/06 08:24:25;;;;;;;0.90;0.80;;;21.90;1.00;;;;;;5072618;28;20441;-57
2022/08/06 08:26:51;;;;;;;2.20;0.80;;;22.00;1.00;;;;;;5089847;28;20510;-56
2022/08/06 08:29:16;;;;;;;0.80;0.60;;;22.00;1.00;;;;;;5088982;28;20478;-57
2022/08/06 08:31:42;;;;;;;1.00;0.90;;;22.20;1.00;;;;;;5089662;28;20190;-57
2022/08/06 08:34:07;;;;;;;2.20;0.93;;;22.50;1.00;;;;;;5088232;28;20182;-57
2022/08/06 08:36:33;;;;;;;2.13;0.70;;;22.30;1.00;;;;;;5087951;28;20302;-57
2022/08/06 08:39:01;;;;;;;2.47;1.10;;;21.80;1.00;;;;;;5088379;28;20178;-58
2022/08/06 08:41:50;;;;;;;1.17;0.90;;;21.80;1.00;;;;;;5071830;28;20186;-58
2022/08/06 08:44:24;;;;;;;1.30;0.73;;;22.10;1.00;;;;;;5071756;28;20508;-57
2022/08/06 08:46:51;;;;;;;1.57;0.73;;;22.00;1.00;;;;;;5087265;28;20892;-57
2022/08/06 08:49:24;;;;;;;3.67;1.10;;;21.80;1.00;;;;;;5089105;28;20437;-57
2022/08/06 08:51:51;;;;;;;1.83;0.97;;;21.80;1.00;;;;;;5089945;28;20489;-57
2022/08/06 08:54:21;;;;;;;1.10;0.80;;;22.10;1.00;;;;;;5090015;28;20436;-57
2022/08/06 08:56:48;;;;;;;1.27;0.60;;;22.10;1.00;;;;;;5089841;28;20443;-57
2022/08/06 08:59:14;;;;;;;2.67;0.97;;;22.20;1.00;;;;;;5090194;28;20478;-57
2022/08/06 09:01:40;;;;;;;1.67;0.70;;;22.40;1.00;;;;;;5092619;28;20712;-57
2022/08/06 09:04:07;;;;;;;2.00;0.90;;;22.90;1.00;;;;;;5093595;28;20433;-57
2022/08/06 09:06:33;;;;;;;0.80;0.70;;;23.20;1.00;;;;;;5093827;28;20478;-56
2022/08/06 09:09:04;;;;;;;2.10;0.83;;;23.40;1.00;;;;;;5093402;28;20471;-57
2022/08/06 09:11:34;;;;;;;2.20;0.70;;;23.20;1.00;;;;;;5092993;28;20810;-57
2022/08/06 09:14:04;;;;;;;1.23;0.63;;;22.50;1.00;;;;;;5093413;28;20487;-56
2022/08/06 09:16:32;;;;;;;0.90;0.80;;;22.40;1.00;;;;;;5093779;28;20973;-56
2022/08/06 09:18:59;;;;;;;1.20;0.50;;;22.50;1.00;;;;;;5093515;28;20490;-57
2022/08/06 09:21:25;;;;;;;1.33;0.67;;;22.90;1.00;;;;;;5093286;28;20425;-56
2022/08/06 09:23:51;;;;;;;0.80;0.70;;;23.30;1.00;;;;;;5092742;28;20440;-57
2022/08/06 09:26:17;;;;;;;3.63;0.97;;;23.60;1.00;;;;;;5093318;28;20435;-56
2022/08/06 09:28:43;;;;;;;1.73;0.90;;;23.80;1.00;;;;;;5093399;28;20464;-57
2022/08/06 09:31:10;;;;;;;0.77;0.67;;;23.10;1.00;;;;;;5093228;28;20214;-57
2022/08/06 09:33:39;;;;;;;1.10;0.70;;;22.90;1.00;;;;;;5093559;28;20432;-56
2022/08/06 09:36:12;;;;;;;1.00;0.60;;;23.10;1.00;;;;;;5091853;28;20903;-56
2022/08/06 09:38:50;;;;;;;2.20;0.50;;;23.30;1.00;;;;;;5092185;28;20453;-57
2022/08/06 09:41:17;;;;;;;2.63;0.87;;;23.10;1.00;;;;;;5092771;28;20827;-57
2022/08/06 09:43:45;;;;;;;2.73;0.73;;;23.10;1.00;;;;;;5090853;28;20510;-58
2022/08/06 09:46:10;;;;;;;1.00;0.67;;;23.30;1.00;;;;;;5091591;28;20501;-56
2022/08/06 09:48:36;;;;;;;2.00;0.67;;;23.80;1.00;;;;;;5088275;28;20464;-57
2022/08/06 09:51:20;;;;;;;2.07;0.70;;;23.80;1.00;;;;;;5085282;28;20191;-57
2022/08/06 09:53:58;;;;;;;2.47;0.70;;;23.80;1.00;;;;;;5081623;28;20357;-56
2022/08/06 09:56:25;;;;;;;1.00;0.70;;;23.60;1.00;;;;;;5080637;28;20428;-56
2022/08/06 09:58:59;;;;;;;0.93;0.70;;;23.60;1.00;;;;;;5090076;28;20448;-56
2022/08/06 10:01:26;;;;;;;0.90;0.60;;;23.00;1.00;;;;;;5091859;28;20527;-57
2022/08/06 10:03:54;;;;;;;1.20;0.80;;;22.80;1.00;;;;;;5091584;28;20491;-57
2022/08/06 10:06:20;;;;;;;1.80;0.90;;;22.90;1.00;;;;;;5092698;28;20437;-57
2022/08/06 10:08:48;;;;;;;3.13;0.80;;;22.90;1.00;;;;;;5091307;28;20979;-58
2022/08/06 10:11:14;;;;;;;2.87;0.70;;;23.30;1.00;;;;;;5072685;28;20444;-58
2022/08/06 10:13:46;;;;;;;1.20;1.00;;;23.70;1.00;;;;;;5092317;28;20465;-56
2022/08/06 10:16:18;;;;;;;2.10;0.70;;;23.90;1.00;;;;;;5092591;28;20836;-57
2022/08/06 10:18:46;;;;;;;1.50;0.67;;;24.30;1.00;;;;;;5092161;28;20432;-57
2022/08/06 10:21:22;;;;;;;2.50;0.60;;;24.40;1.00;;;;;;5092379;28;20539;-57
2022/08/06 10:23:52;;;;;;;1.97;0.80;;;23.90;1.00;;;;;;5091781;28;20415;-58
2022/08/06 10:26:24;;;;;;;1.30;0.70;;;23.80;1.00;;;;;;5092101;28;20465;-56
2022/08/06 10:28:52;;;;;;;0.97;0.70;;;24.00;1.00;;;;;;5092124;28;20508;-57
2022/08/06 10:31:18;;;;;;;1.53;0.70;;;24.20;1.00;;;;;;5091908;28;20928;-56
2022/08/06 10:33:51;;;;;;;1.50;0.63;;;24.00;1.00;;;;;;5092295;28;20434;-57
2022/08/06 10:36:24;;;;;;;1.23;0.70;;;23.60;1.00;;;;;;5089768;28;20521;-56
2022/08/06 10:38:52;;;;;;;1.30;1.03;;;23.50;1.00;;;;;;5091705;28;20444;-57
2022/08/06 10:41:18;;;;;;;1.00;0.63;;;23.80;1.00;;;;;;5091390;28;20452;-56
2022/08/06 10:43:45;;;;;;;1.23;0.63;;;23.80;1.00;;;;;;5091813;28;20483;-57
2022/08/06 10:46:14;;;;;;;0.90;0.67;;;24.00;1.00;;;;;;5091805;28;20479;-57
2022/08/06 10:48:41;;;;;;;3.20;0.90;;;24.30;1.00;;;;;;5091811;28;20463;-58
2022/08/06 10:51:08;;;;;;;1.43;0.60;;;24.60;1.00;;;;;;5091495;28;20482;-57
2022/08/06 10:53:35;;;;;;;1.00;0.60;;;24.50;1.00;;;;;;5091825;28;20440;-57
2022/08/06 10:56:06;;;;;;;1.53;0.90;;;24.30;1.00;;;;;;5073445;28;20469;-58
2022/08/06 10:58:34;;;;;;;2.80;0.80;;;24.30;1.00;;;;;;5091839;28;20441;-57
2022/08/06 11:01:05;;;;;;;1.90;0.80;;;24.30;1.00;;;;;;5088834;28;20960;-57
2022/08/06 11:03:58;;;;;;;1.53;0.60;;;24.60;1.00;;;;;;5091061;28;20445;-58
2022/08/06 11:06:43;;;;;;;2.10;0.53;;;24.90;1.00;;;;;;5091080;28;20452;-58
2022/08/06 11:09:35;;;;;;;1.07;0.70;;;24.70;1.00;;;;;;5090617;28;20475;-58
2022/08/06 11:12:21;;;;;;;1.97;0.87;;;24.80;1.00;;;;;;5090335;28;20942;-58
2022/08/06 11:14:49;;;;;;;1.67;0.60;;;25.10;1.00;;;;;;5089525;28;21177;-58
2022/08/06 11:17:16;;;;;;;1.07;0.50;;;25.10;1.00;;;;;;5089990;28;20453;-58
2022/08/06 11:19:47;;;;;;;0.90;0.60;;;25.20;1.00;;;;;;5089885;28;20445;-58
2022/08/06 11:22:34;;;;;;;2.23;1.00;;;25.00;1.00;;;;;;5090336;28;20489;-57
2022/08/06 11:25:00;;;;;;;1.90;0.70;;;24.40;1.00;;;;;;5091086;28;20488;-56
2022/08/06 11:27:52;;;;;;;2.27;0.60;;;24.80;1.00;;;;;;5090536;28;20467;-57
2022/08/06 11:30:21;;;;;;;0.83;0.60;;;24.90;1.00;;;;;;5090772;28;20490;-58
2022/08/06 11:32:52;;;;;;;1.00;0.50;;;25.10;1.00;;;;;;5090555;28;20443;-55
2022/08/06 11:35:33;;;;;;;0.80;0.50;;;25.30;1.00;;;;;;5090889;28;20664;-53
2022/08/06 11:37:59;;;;;;;4.70;0.80;;;25.30;1.00;;;;;;5050620;28;20841;-55
2022/08/06 11:40:25;;;;;;;1.13;0.80;;;25.50;1.00;;;;;;5050364;28;20451;-55
2022/08/06 11:42:52;;;;;;;1.87;0.63;;;25.20;1.00;;;;;;5049393;28;20473;-56
2022/08/06 11:45:18;;;;;;;1.50;0.47;;;25.30;1.00;;;;;;5050389;28;20492;-54
2022/08/06 11:48:06;;;;;;;0.97;0.73;;;25.30;1.00;;;;;;5050085;28;20440;-53
2022/08/06 11:50:32;;;;;;;0.90;0.50;;;25.30;1.00;;;;;;5048826;28;20184;-55
2022/08/06 11:52:57;;;;;;;1.70;0.60;;;25.40;1.00;;;;;;5050442;28;20438;-57
2022/08/06 11:55:23;;;;;;;1.10;0.50;;;25.10;1.00;;;;;;5050411;28;20918;-56
2022/08/06 11:58:12;;;;;;;1.73;0.50;;;25.20;1.00;;;;;;5050305;28;20646;-54
2022/08/06 12:00:58;;;;;;;2.60;0.97;;;25.20;1.00;;;;;;5038938;28;20192;-53
2022/08/06 12:03:42;;;;;;;3.20;0.70;;;25.10;1.00;;;;;;5050613;28;20442;-55
2022/08/06 12:06:25;;;;;;;1.10;0.70;;;24.90;1.00;;;;;;5049148;28;20480;-55
2022/08/06 12:09:06;;;;;;;0.80;0.50;;;25.00;1.00;;;;;;5050328;28;20532;-53
2022/08/06 12:11:33;;;;;;;2.60;0.87;;;24.90;1.00;;;;;;5050335;28;20423;-57
2022/08/06 12:13:59;;;;;;;1.00;0.50;;;24.90;1.00;;;;;;5049060;28;20442;-55
2022/08/06 12:16:36;;;;;;;2.60;1.00;;;25.00;1.00;;;;;;5050333;28;20429;-56
2022/08/06 12:19:04;;;;;;;1.27;0.60;;;25.10;1.00;;;;;;5048114;28;20450;-53
2022/08/06 12:21:30;;;;;;;1.73;0.83;;;25.30;1.00;;;;;;5050028;28;20441;-56
2022/08/06 12:23:56;;;;;;;2.70;0.80;;;25.30;1.00;;;;;;5049943;28;20488;-56
2022/08/06 12:26:22;;;;;;;3.63;0.63;;;25.40;1.00;;;;;;5050417;28;20444;-56
2022/08/06 12:28:49;;;;;;;1.07;0.40;;;25.40;1.00;;;;;;5050110;28;20494;-53
2022/08/06 12:31:28;;;;;;;1.97;0.50;;;25.10;1.00;;;;;;5050156;28;20988;-55
2022/08/06 12:33:54;;;;;;;1.00;0.60;;;25.20;1.00;;;;;;5048203;28;20517;-56
2022/08/06 12:36:19;;;;;;;1.40;0.60;;;25.10;1.00;;;;;;5065931;28;20522;-54
2022/08/06 12:38:54;;;;;;;3.23;0.70;;;25.10;1.00;;;;;;5090294;28;20560;-56
2022/08/06 12:41:20;;;;;;;3.47;0.70;;;25.20;1.00;;;;;;5090430;28;20192;-56
2022/08/06 12:43:45;;;;;;;0.90;0.60;;;25.40;1.00;;;;;;5089417;28;20419;-54
2022/08/06 12:46:11;;;;;;;3.77;0.73;;;25.30;1.00;;;;;;5089892;28;20179;-56
2022/08/06 12:48:44;;;;;;;0.90;0.40;;;25.00;1.00;;;;;;5090179;28;20206;-55
2022/08/06 12:51:13;;;;;;;1.43;0.50;;;25.00;1.00;;;;;;5090071;28;20436;-53
2022/08/06 12:54:00;;;;;;;1.00;0.60;;;24.80;1.00;;;;;;5090140;28;20429;-56
2022/08/06 12:56:28;;;;;;;0.83;0.40;;;24.70;1.00;;;;;;5087613;28;20432;-55
2022/08/06 12:58:55;;;;;;;1.37;0.60;;;24.70;1.00;;;;;;5089961;28;20440;-52
2022/08/06 13:01:24;;;;;;;2.20;0.70;;;24.50;1.00;;;;;;5089684;28;20433;-55
2022/08/06 13:03:53;;;;;;;1.00;0.70;;;24.30;1.00;;;;;;5089511;28;20453;-54
2022/08/06 13:06:22;;;;;;;0.73;0.50;;;24.50;1.00;;;;;;5089907;28;20464;-57
2022/08/06 13:08:50;;;;;;;1.00;0.47;;;24.80;1.00;;;;;;5089645;28;20525;-55
2022/08/06 13:11:16;;;;;;;1.50;0.43;;;24.90;1.00;;;;;;5089810;28;20562;-55
2022/08/06 13:13:47;;;;;;;1.57;0.50;;;24.80;1.00;;;;;;5089992;28;20474;-54
2022/08/06 13:16:14;;;;;;;1.43;0.50;;;24.80;1.00;;;;;;5089465;28;20516;-54
2022/08/06 13:18:42;;;;;;;1.00;0.50;;;24.80;1.00;;;;;;5089898;28;20441;-54